createdAt,value
2018-11-21T00:07:38.312Z,45.67
2018-11-21T00:12:44.364Z,46.50
2018-11-21T00:18:06.813Z,46.07
2018-11-21T00:23:22.730Z,50.67
2018-11-21T00:28:27.049Z,47.80
2018-11-21T00:33:30.435Z,50.00
2018-11-21T00:38:34.017Z,50.53
2018-11-21T00:43:37.430Z,42.87
2018-11-21T00:48:59.888Z,50.17
2018-11-21T00:54:03.304Z,45.30
2018-11-21T00:59:06.899Z,49.93
2018-11-21T01:04:29.348Z,46.90
2018-11-21T01:14:48.327Z,44.30
2018-11-21T01:20:10.791Z,45.87
2018-11-21T01:25:33.290Z,44.67
2018-11-21T01:35:52.092Z,39.83
2018-11-21T01:40:55.402Z,37.17
2018-11-21T01:45:58.800Z,39.40
2018-11-21T01:51:02.194Z,38.23
2018-11-21T01:56:05.925Z,35.43
2018-11-21T02:01:09.486Z,37.57
2018-11-21T02:06:12.895Z,38.50
2018-11-21T02:11:16.302Z,40.47
2018-11-21T02:16:19.692Z,41.10
2018-11-21T02:21:23.085Z,34.30
2018-11-21T02:26:26.795Z,40.43
2018-11-21T02:36:38.875Z,38.03
2018-11-21T02:41:42.400Z,41.10
2018-11-21T02:47:04.876Z,40.30
2018-11-21T02:52:08.434Z,40.70
2018-11-21T02:57:32.598Z,44.33
2018-11-21T03:02:36.004Z,42.03
2018-11-21T03:07:58.456Z,42.57
2018-11-21T03:13:01.882Z,45.50
2018-11-21T03:18:24.854Z,41.07
2018-11-21T03:23:28.251Z,44.63
2018-11-21T03:28:31.720Z,46.73
2018-11-21T03:33:35.121Z,43.37
2018-11-21T03:38:57.524Z,47.03
2018-11-21T03:49:16.809Z,40.67
2018-11-21T03:54:20.202Z,47.10
2018-11-21T03:59:42.654Z,43.23
2018-11-21T04:05:05.157Z,45.23
2018-11-21T04:10:27.983Z,46.00
2018-11-21T04:15:31.615Z,45.23
2018-11-21T04:20:54.070Z,43.07
2018-11-21T04:25:57.552Z,43.77
2018-11-21T04:31:00.972Z,46.83
2018-11-21T04:36:04.685Z,43.47
2018-11-21T04:41:08.098Z,43.70
2018-11-21T04:56:48.618Z,41.53
2018-11-21T05:01:52.029Z,44.40
2018-11-21T05:07:14.527Z,43.93
2018-11-21T05:17:49.342Z,41.10
2018-11-21T05:23:11.836Z,39.60
2018-11-21T05:28:15.755Z,44.77
2018-11-21T05:33:19.104Z,41.70
2018-11-21T05:38:41.719Z,47.07
2018-11-21T05:43:45.156Z,46.17
2018-11-21T05:48:53.397Z,45.47
2018-11-21T05:54:13.615Z,42.07
2018-11-21T06:04:31.908Z,35.52
2018-11-21T06:09:54.390Z,35.67
2018-11-21T06:15:16.904Z,43.00
2018-11-21T06:20:39.743Z,44.50
2018-11-21T06:26:02.233Z,46.93
2018-11-21T06:31:06.038Z,42.67
2018-11-21T06:36:09.635Z,43.73
2018-11-21T06:41:32.081Z,44.07
2018-11-21T06:46:35.668Z,47.73
2018-11-21T06:51:58.099Z,49.33
2018-11-21T07:02:17.333Z,43.90
2018-11-21T07:07:39.891Z,39.20
2018-11-21T07:13:02.389Z,41.33
2018-11-21T07:18:06.079Z,43.20
2018-11-21T07:23:28.552Z,39.20
2018-11-21T07:28:44.230Z,48.30
2018-11-21T07:34:06.719Z,47.90
2018-11-21T07:39:10.143Z,40.57
2018-11-21T07:44:13.670Z,39.53
2018-11-21T07:49:36.105Z,41.97
2018-11-21T07:54:39.519Z,48.80
2018-11-21T08:11:08.452Z,41.97
2018-11-21T08:16:30.882Z,41.03
2018-11-21T08:21:53.355Z,41.73
2018-11-21T08:32:12.252Z,41.47
2018-11-21T08:37:15.665Z,39.23
2018-11-21T08:42:38.118Z,39.20
2018-11-21T08:47:41.517Z,42.57
2018-11-21T08:53:03.975Z,43.80
2018-11-21T09:08:39.137Z,42.63
2018-11-21T09:14:01.583Z,44.97
2018-11-21T09:19:05.069Z,39.00
2018-11-21T09:24:27.518Z,37.20
2018-11-21T09:29:31.462Z,37.93
2018-11-21T09:34:53.854Z,39.93
2018-11-21T09:39:57.303Z,38.07
2018-11-21T09:45:00.689Z,36.70
2018-11-21T09:50:06.006Z,41.23
2018-11-21T09:55:09.649Z,36.53
2018-11-21T10:00:52.642Z,43.63
2018-11-21T10:05:58.760Z,39.77
2018-11-21T10:11:21.202Z,35.53
2018-11-21T10:16:43.689Z,33.87
2018-11-21T10:21:47.125Z,34.43
2018-11-21T10:26:51.007Z,34.53
2018-11-21T10:32:13.481Z,33.77
2018-11-21T10:37:35.961Z,32.30
2018-11-21T10:47:54.423Z,27.93
2018-11-21T10:53:16.859Z,28.47
2018-11-21T10:58:20.630Z,31.83
2018-11-21T11:03:43.070Z,28.13
2018-11-21T11:14:20.706Z,27.63
2018-11-21T11:19:43.209Z,25.70
2018-11-21T11:24:59.827Z,25.43
2018-11-21T11:30:25.215Z,27.90
2018-11-21T11:35:47.690Z,32.00
2018-11-21T11:41:10.197Z,30.50
2018-11-21T11:46:32.714Z,30.00
2018-11-21T11:51:47.681Z,26.43
2018-11-21T11:57:10.366Z,27.27
2018-11-21T12:02:32.902Z,28.80
2018-11-21T12:23:40.720Z,26.63
2018-11-21T12:29:03.178Z,29.50
2018-11-21T12:34:27.208Z,31.00
2018-11-21T12:45:04.936Z,32.53
2018-11-21T12:50:29.013Z,29.97
2018-11-21T12:55:51.507Z,24.73
2018-11-21T13:01:14.016Z,24.00
2018-11-21T13:11:51.589Z,21.97
2018-11-21T13:17:10.570Z,28.30
2018-11-21T13:22:33.176Z,23.40
2018-11-21T13:27:55.678Z,30.43
2018-11-21T13:38:34.376Z,41.67
2018-11-21T13:43:56.876Z,47.73
2018-11-21T13:54:34.928Z,48.30
2018-11-21T13:59:38.353Z,53.03
2018-11-21T14:04:41.878Z,56.53
2018-11-21T14:09:45.245Z,51.07
2018-11-21T14:15:07.724Z,47.13
2018-11-21T14:25:27.269Z,56.03
2018-11-21T14:30:49.706Z,59.47
2018-11-21T14:36:12.183Z,57.30
2018-11-21T14:46:31.008Z,59.07
2018-11-21T14:51:34.417Z,57.17
2018-11-21T14:56:56.849Z,56.63
2018-11-21T15:02:19.316Z,53.63
2018-11-21T15:12:31.692Z,49.83
2018-11-21T15:17:54.401Z,54.77
2018-11-21T15:23:09.990Z,52.80
2018-11-21T15:28:13.535Z,68.80
2018-11-21T15:33:36.054Z,50.50
2018-11-21T15:54:25.366Z,62.77
2018-11-21T15:59:47.923Z,62.97
2018-11-21T16:05:04.207Z,64.70
2018-11-21T16:10:21.718Z,66.70
2018-11-21T16:15:44.753Z,64.50
2018-11-21T16:31:28.233Z,71.20
2018-11-21T16:47:09.782Z,86.97
2018-11-21T16:52:13.470Z,84.70
2018-11-21T16:57:36.029Z,74.17
2018-11-21T17:02:52.052Z,77.23
2018-11-21T17:08:08.291Z,77.70
2018-11-21T17:13:30.805Z,94.13
2018-11-21T17:28:59.584Z,79.33
2018-11-21T17:34:03.452Z,77.13
2018-11-21T17:39:29.399Z,88.00
2018-11-21T17:44:45.538Z,79.93
2018-11-21T17:50:00.963Z,82.50
2018-11-21T17:55:18.655Z,88.33
2018-11-21T18:00:34.349Z,95.07
2018-11-21T18:05:50.090Z,81.70
2018-11-21T18:11:06.034Z,85.87
2018-11-21T18:16:29.009Z,77.00
2018-11-21T18:42:09.608Z,73.60
2018-11-21T18:57:54.182Z,78.67
2018-11-21T19:13:29.656Z,84.20
2018-11-21T19:23:41.958Z,76.27
2018-11-21T19:33:54.732Z,77.17
2018-11-21T19:38:58.130Z,85.70
2018-11-21T19:49:11.283Z,81.63
2018-11-21T19:54:33.773Z,87.50
2018-11-21T19:59:49.221Z,86.30
2018-11-21T20:04:53.000Z,88.03
2018-11-21T20:09:56.596Z,86.73
2018-11-21T20:15:00.228Z,83.00
2018-11-21T20:20:03.859Z,87.83
2018-11-21T20:25:27.913Z,84.60
2018-11-21T20:35:46.729Z,83.17
2018-11-21T20:41:09.684Z,76.27
2018-11-21T20:46:25.069Z,82.60
2018-11-21T20:51:42.003Z,81.50
2018-11-21T20:56:45.658Z,90.53
2018-11-21T21:07:01.428Z,83.83
2018-11-21T21:12:24.186Z,74.70
2018-11-21T21:33:07.033Z,87.23
2018-11-21T21:43:43.460Z,82.63
2018-11-21T21:49:10.564Z,86.37
2018-11-21T21:59:53.002Z,79.03
2018-11-21T22:04:50.536Z,76.40
2018-11-21T22:10:31.214Z,71.53
2018-11-21T22:16:02.200Z,71.23
2018-11-21T22:21:04.313Z,70.93
2018-11-21T22:26:07.954Z,86.33
2018-11-21T22:32:09.126Z,79.13
2018-11-21T22:37:17.448Z,77.67
2018-11-21T22:42:23.271Z,78.07
2018-11-21T22:47:44.463Z,72.87
2018-11-21T23:03:06.561Z,70.53
2018-11-21T23:08:10.031Z,72.07
2018-11-21T23:13:13.647Z,70.17
2018-11-21T23:18:17.076Z,68.60
2018-11-21T23:23:39.781Z,69.47
2018-11-21T23:28:43.209Z,74.67
2018-11-21T23:33:46.698Z,69.47
2018-11-21T23:38:50.124Z,64.80
2018-11-21T23:43:53.766Z,65.73
2018-11-21T23:49:16.262Z,68.07
2018-11-21T23:54:19.662Z,70.90
2018-11-21T23:59:23.021Z,68.13
